Wetterdaten: aktuell Mittwoch, 06.12.2023 01:20
Datum Zeit Temp. A. Feuchte A. Luftdruck Regen Wind Richtung Richtung Taupunkt Windchill Windben Empfang
06.12.2023 01:20 -2,8 C 95 % 1016,6 hPa 0,0 l/m 2,1 km/h (1 Bft) NO 55 -3,5 C -2,8 C 3,2 km/h (1 Bft) 98 %
06.12.2023 01:18 -2,8 C 95 % 1016,6 hPa 0,0 l/m 2,7 km/h (1 Bft) NO 54 -3,5 C -2,8 C 4,8 km/h (1 Bft) 100 %
06.12.2023 01:16 -2,8 C 95 % 1016,6 hPa 0,0 l/m 3,8 km/h (1 Bft) NO 52 -3,5 C -2,8 C 6,4 km/h (2 Bft) 100 %
06.12.2023 01:14 -2,8 C 95 % 1016,6 hPa 0,0 l/m 1,9 km/h (1 Bft) O-NO 59 -3,5 C -2,8 C 4,8 km/h (1 Bft) 100 %
06.12.2023 01:12 -2,8 C 95 % 1016,6 hPa 0,0 l/m 2,4 km/h (1 Bft) O-NO 65 -3,5 C -2,8 C 4,8 km/h (1 Bft) 100 %
06.12.2023 01:10 -2,8 C 95 % 1016,5 hPa 0,0 l/m 2,6 km/h (1 Bft) O-NO 60 -3,5 C -2,8 C 4,8 km/h (1 Bft) 100 %
06.12.2023 01:08 -2,8 C 94 % 1016,7 hPa 0,0 l/m 2,8 km/h (1 Bft) O-NO 60 -3,6 C -2,8 C 4,8 km/h (1 Bft) 100 %
06.12.2023 01:06 -2,8 C 94 % 1016,6 hPa 0,0 l/m 3,0 km/h (1 Bft) O-SO 108 -3,6 C -2,8 C 4,8 km/h (1 Bft) 100 %
06.12.2023 01:04 -2,8 C 94 % 1016,6 hPa 0,0 l/m 2,0 km/h (1 Bft) O-NO 60 -3,6 C -2,8 C 3,2 km/h (1 Bft) 100 %
06.12.2023 01:02 -2,7 C 94 % 1016,6 hPa 0,0 l/m 2,6 km/h (1 Bft) O-NO 62 -3,5 C -2,7 C 4,8 km/h (1 Bft) 100 %
06.12.2023 01:00 -2,7 C 94 % 1016,6 hPa 0,0 l/m 3,7 km/h (1 Bft) O-NO 66 -3,5 C -2,7 C 6,4 km/h (2 Bft) 100 %
06.12.2023 00:58 -2,7 C 94 % 1016,6 hPa 0,0 l/m 2,3 km/h (1 Bft) NO 53 -3,5 C -2,7 C 4,8 km/h (1 Bft) 100 %
06.12.2023 00:56 -2,8 C 94 % 1016,6 hPa 0,0 l/m 2,9 km/h (1 Bft) O-NO 60 -3,6 C -2,8 C 4,8 km/h (1 Bft) 100 %
06.12.2023 00:54 -2,8 C 94 % 1016,7 hPa 0,0 l/m 1,6 km/h (1 Bft) O-NO 64 -3,6 C -2,8 C 3,2 km/h (1 Bft) 100 %
06.12.2023 00:52 -2,8 C 94 % 1016,6 hPa 0,0 l/m 3,0 km/h (1 Bft) O-NO 65 -3,6 C -2,8 C 4,8 km/h (1 Bft) 100 %
06.12.2023 00:50 -2,8 C 94 % 1016,6 hPa 0,0 l/m 0,4 km/h (0 Bft) NO 50 -3,6 C -2,8 C 1,6 km/h (1 Bft) 100 %
06.12.2023 00:48 -2,8 C 94 % 1016,7 hPa 0,0 l/m 0,3 km/h (0 Bft) NO 50 -3,6 C -2,8 C 1,6 km/h (1 Bft) 100 %
06.12.2023 00:46 -2,8 C 94 % 1016,6 hPa 0,0 l/m 0,7 km/h (0 Bft) NO 50 -3,6 C -2,8 C 1,6 km/h (1 Bft) 100 %
06.12.2023 00:44 -2,8 C 94 % 1016,6 hPa 0,0 l/m 1,6 km/h (1 Bft) NO 50 -3,6 C -2,8 C 3,2 km/h (1 Bft) 100 %
06.12.2023 00:42 -2,7 C 94 % 1016,6 hPa 0,0 l/m 3,8 km/h (1 Bft) NO 50 -3,5 C -2,7 C 6,4 km/h (2 Bft) 100 %
06.12.2023 00:40 -2,8 C 94 % 1016,5 hPa 0,0 l/m 2,2 km/h (1 Bft) NO 52 -3,6 C -2,8 C 4,8 km/h (1 Bft) 100 %
06.12.2023 00:38 -2,7 C 94 % 1016,7 hPa 0,0 l/m 3,8 km/h (1 Bft) NO 45 -3,5 C -2,7 C 4,8 km/h (1 Bft) 100 %
06.12.2023 00:36 -2,7 C 94 % 1016,7 hPa 0,0 l/m 4,2 km/h (1 Bft) NO 41 -3,5 C -2,7 C 6,4 km/h (2 Bft) 100 %
06.12.2023 00:34 -2,7 C 94 % 1016,7 hPa 0,0 l/m 2,2 km/h (1 Bft) O-NO 59 -3,5 C -2,7 C 3,2 km/h (1 Bft) 100 %
06.12.2023 00:32 -2,7 C 94 % 1016,7 hPa 0,0 l/m 2,5 km/h (1 Bft) O-NO 65 -3,5 C -2,7 C 6,4 km/h (2 Bft) 100 %
06.12.2023 00:30 -2,7 C 94 % 1016,7 hPa 0,0 l/m 1,8 km/h (1 Bft) O-NO 69 -3,5 C -2,7 C 3,2 km/h (1 Bft) 98 %
06.12.2023 00:28 -2,7 C 94 % 1016,7 hPa 0,0 l/m 0,7 km/h (0 Bft) O-NO 59 -3,5 C -2,7 C 3,2 km/h (1 Bft) 100 %
06.12.2023 00:26 -2,7 C 94 % 1016,8 hPa 0,0 l/m 0,2 km/h (0 Bft) O-NO 58 -3,5 C -2,7 C 1,6 km/h (1 Bft) 100 %
06.12.2023 00:24 -2,7 C 94 % 1016,8 hPa 0,0 l/m 2,1 km/h (1 Bft) O-NO 59 -3,5 C -2,7 C 3,2 km/h (1 Bft) 100 %
06.12.2023 00:22 -2,7 C 94 % 1016,8 hPa 0,0 l/m 2,4 km/h (1 Bft) O-NO 66 -3,5 C -2,7 C 4,8 km/h (1 Bft) 100 %
06.12.2023 00:20 -2,7 C 94 % 1016,8 hPa 0,0 l/m 0,4 km/h (0 Bft) O-NO 58 -3,5 C -2,7 C 1,6 km/h (1 Bft) 100 %
_ Min-Zeit 00:40 00:00 00:40 - 00:26 - - 00:40 00:40 00:16 00:08
Minimum _ -2,8 C 94 % 1016,5 hPa - 0,2 km/h (0 Bft) - - -3,6 C -2,8 C 1,6 km/h (1 Bft) 96 %
_ Max-Zeit 00:00 01:10 00:00 00:00 00:00 - - 00:00 00:00 00:00 00:00
Maximum _ -2,6 C 95 % 1017,0 hPa 0,0 l/m 4,7 km/h
N-NO (1 Bft)
- - -3,4 C -2,6 C 8,0 km/h
NO (2 Bft)
100 %
Durchschnitt _ -2,7 C 94 % 1016,7 hPa #0,0 l/m 2,3 km/h (1 Bft) O-NO - -3,5 C -2,7 C 4,4 km/h (1 Bft) 100 %